createdAt,value
2017-12-04T15:43:32.137Z,7.5
2017-12-04T15:53:46.907Z,7.6
2017-12-04T16:04:01.741Z,7.3
2017-12-04T16:14:15.748Z,7.5
2017-12-04T16:24:29.804Z,7.3
2017-12-04T16:34:43.388Z,7.4
2017-12-04T16:44:57.044Z,7.1
2017-12-04T16:55:10.604Z,7.4
2017-12-04T17:05:24.183Z,7.5
2017-12-04T17:15:39.482Z,7.7
2017-12-04T17:25:53.746Z,7.5
2017-12-04T17:36:08.064Z,7.3
2017-12-04T17:46:23.148Z,7.4
2017-12-04T17:56:37.983Z,7.3
2017-12-04T18:06:51.378Z,7.5
2017-12-04T18:17:04.586Z,7.5
2017-12-04T18:27:19.177Z,7.4
2017-12-04T18:37:33.389Z,7.6
2017-12-04T18:47:47.631Z,7.6
2017-12-04T18:58:01.458Z,7.7
2017-12-04T19:08:15.413Z,7.6
2017-12-04T19:18:30.297Z,7.6
2017-12-04T19:28:44.666Z,7.5
2017-12-04T19:38:58.522Z,7.4
2017-12-04T19:49:11.960Z,7.5
2017-12-04T19:59:26.947Z,7.6
2017-12-04T20:09:41.457Z,7.6
2017-12-04T20:19:56.477Z,7.6
2017-12-04T20:30:09.997Z,7.6
2017-12-04T20:40:23.680Z,7.6
2017-12-04T20:50:38.400Z,7.6
2017-12-04T21:00:51.713Z,7.6
2017-12-04T21:11:06.334Z,7.1
2017-12-04T21:21:19.998Z,7.3
2017-12-04T21:31:34.544Z,7.1
2017-12-04T21:41:49.412Z,7.2
2017-12-04T21:52:03.201Z,7.3
2017-12-04T22:02:18.109Z,7.4
2017-12-04T22:12:33.378Z,7.4
2017-12-04T22:22:47.809Z,7.5
2017-12-04T22:33:01.720Z,7.4
2017-12-04T22:43:15.502Z,7.3
2017-12-04T22:53:29.815Z,7.1
2017-12-04T23:03:43.818Z,7.2
2017-12-04T23:13:57.198Z,7.1
2017-12-04T23:24:11.846Z,6.9
2017-12-04T23:34:26.247Z,6.8
2017-12-04T23:44:40.306Z,6.7
2017-12-04T23:54:53.746Z,6.8
